createdAt,value
2023-05-13T00:01:19.005Z,102374.54
2023-05-13T00:03:47.584Z,102374.05
2023-05-13T00:06:16.007Z,102371.63
2023-05-13T00:08:43.907Z,102367.52
2023-05-13T00:11:11.916Z,102367.68
2023-05-13T00:13:39.768Z,102364.48
2023-05-13T00:16:07.943Z,102365.25
2023-05-13T00:18:35.954Z,102364.35
2023-05-13T00:21:03.915Z,102366.88
2023-05-13T00:23:32.858Z,102361.73
2023-05-13T00:26:01.057Z,102360.42
2023-05-13T00:28:28.945Z,102358.20
2023-05-13T00:30:56.806Z,102363.20
2023-05-13T00:33:24.587Z,102361.55
2023-05-13T00:35:52.496Z,102362.36
2023-05-13T00:38:24.986Z,102356.52
2023-05-13T00:40:53.247Z,102357.27
2023-05-13T00:43:21.079Z,102357.13
2023-05-13T00:45:48.977Z,102360.81
2023-05-13T00:48:16.889Z,102362.51
2023-05-13T00:50:44.904Z,102357.23
2023-05-13T00:53:12.962Z,102352.83
2023-05-13T00:55:44.785Z,102355.38
2023-05-13T00:58:13.483Z,102350.83
2023-05-13T01:01:07.531Z,102354.30
2023-05-13T01:03:41.187Z,102348.77
2023-05-13T01:06:12.359Z,102350.00
2023-05-13T01:08:47.757Z,102353.02
2023-05-13T01:11:24.442Z,102351.85
2023-05-13T01:13:57.162Z,102350.90
2023-05-13T01:16:30.171Z,102351.52
2023-05-13T01:18:59.290Z,102349.81
2023-05-13T01:21:27.688Z,102350.71
2023-05-13T01:23:56.113Z,102354.36
2023-05-13T01:26:25.460Z,102350.55
2023-05-13T01:28:53.416Z,102347.12
2023-05-13T01:31:22.345Z,102347.70
2023-05-13T01:33:50.425Z,102346.35
2023-05-13T01:36:18.445Z,102336.42
2023-05-13T01:38:46.339Z,102336.55
2023-05-13T01:41:14.244Z,102332.98
2023-05-13T01:43:43.739Z,102335.77
2023-05-13T01:46:12.119Z,102334.38
2023-05-13T01:48:40.000Z,102335.34
2023-05-13T01:51:08.302Z,102335.77
2023-05-13T01:53:36.711Z,102336.52
2023-05-13T01:56:04.605Z,102338.19
2023-05-13T01:58:32.920Z,102340.65
2023-05-13T02:01:00.770Z,102338.33
2023-05-13T02:03:28.823Z,102337.94
2023-05-13T02:05:56.886Z,102337.80
2023-05-13T02:08:25.600Z,102338.41
2023-05-13T02:10:57.039Z,102343.80
2023-05-13T02:13:26.848Z,102338.45
2023-05-13T02:15:55.547Z,102338.80
2023-05-13T02:18:23.463Z,102338.73
2023-05-13T02:20:51.316Z,102339.20
2023-05-13T02:23:19.131Z,102340.87
2023-05-13T02:25:46.981Z,102339.35
2023-05-13T02:28:14.693Z,102341.14
2023-05-13T02:30:42.647Z,102338.23
2023-05-13T02:33:10.624Z,102339.25
2023-05-13T02:35:38.516Z,102341.16
2023-05-13T02:38:06.356Z,102338.82
2023-05-13T02:40:34.590Z,102336.56
2023-05-13T02:43:02.327Z,102336.28
2023-05-13T02:45:30.346Z,102336.77
2023-05-13T02:47:58.582Z,102337.02
2023-05-13T02:50:26.948Z,102332.70
2023-05-13T02:52:54.785Z,102333.05
2023-05-13T02:55:23.117Z,102334.19
2023-05-13T02:57:51.086Z,102331.41
2023-05-13T03:00:19.136Z,102332.64
2023-05-13T03:02:47.222Z,102331.63
2023-05-13T03:05:15.153Z,102333.67
2023-05-13T03:07:43.633Z,102335.27
2023-05-13T03:10:11.862Z,102334.52
2023-05-13T03:12:39.860Z,102333.50
2023-05-13T03:15:08.183Z,102337.58
2023-05-13T03:17:35.944Z,102333.11
2023-05-13T03:20:04.377Z,102332.83
2023-05-13T03:22:32.093Z,102331.35
2023-05-13T03:25:00.258Z,102333.20
2023-05-13T03:27:28.067Z,102330.83
2023-05-13T03:29:55.878Z,102335.23
2023-05-13T03:32:25.447Z,102333.11
2023-05-13T03:34:53.613Z,102338.20
2023-05-13T03:37:21.421Z,102332.98
2023-05-13T03:39:49.246Z,102332.48
2023-05-13T03:42:19.307Z,102330.42
2023-05-13T03:44:47.526Z,102336.17
2023-05-13T03:47:15.439Z,102329.91
2023-05-13T03:49:43.168Z,102335.83
2023-05-13T03:52:11.115Z,102333.17
2023-05-13T03:54:38.958Z,102335.83
2023-05-13T03:57:07.421Z,102335.10
2023-05-13T03:59:35.152Z,102337.11
2023-05-13T04:02:03.177Z,102334.80
2023-05-13T04:04:31.166Z,102333.83
2023-05-13T04:06:59.092Z,102333.34
2023-05-13T04:09:26.953Z,102338.23
2023-05-13T04:11:54.852Z,102336.67
2023-05-13T04:14:22.703Z,102331.92
2023-05-13T04:16:50.604Z,102334.23
2023-05-13T04:19:18.350Z,102335.48
2023-05-13T04:21:46.109Z,102336.51
2023-05-13T04:24:13.798Z,102337.00
2023-05-13T04:26:41.902Z,102335.20
2023-05-13T04:29:12.186Z,102333.85
2023-05-13T04:31:40.204Z,102334.55
2023-05-13T04:34:08.404Z,102332.42
2023-05-13T04:36:36.230Z,102332.00
2023-05-13T04:39:03.989Z,102332.15
2023-05-13T04:41:31.741Z,102334.65
2023-05-13T04:43:59.452Z,102330.59
2023-05-13T04:46:27.426Z,102336.00
2023-05-13T04:48:55.282Z,102334.40
2023-05-13T04:51:23.570Z,102335.44
2023-05-13T04:53:51.806Z,102339.49
2023-05-13T04:56:19.574Z,102342.77
2023-05-13T04:58:47.433Z,102348.47
2023-05-13T05:01:15.404Z,102351.63
2023-05-13T05:03:43.425Z,102354.78
2023-05-13T05:06:14.631Z,102351.75
2023-05-13T05:08:42.457Z,102354.70
2023-05-13T05:11:10.840Z,102358.98
2023-05-13T05:13:38.820Z,102362.79
2023-05-13T05:16:07.061Z,102364.61
2023-05-13T05:18:36.268Z,102366.23
2023-05-13T05:21:04.070Z,102368.66
2023-05-13T05:23:32.026Z,102370.88
2023-05-13T05:26:11.196Z,102361.92
2023-05-13T05:28:42.391Z,102367.90
2023-05-13T05:31:10.719Z,102372.27
2023-05-13T05:33:39.369Z,102368.48
2023-05-13T05:36:07.332Z,102370.82
2023-05-13T05:38:35.803Z,102373.02
2023-05-13T05:41:06.735Z,102377.28
2023-05-13T05:43:34.838Z,102381.18
2023-05-13T05:46:03.298Z,102382.69
2023-05-13T05:48:32.640Z,102383.40
2023-05-13T05:51:02.218Z,102384.93
2023-05-13T05:53:30.308Z,102386.10
2023-05-13T05:55:58.104Z,102384.98
2023-05-13T05:58:27.163Z,102387.27
2023-05-13T06:00:55.188Z,102393.02
2023-05-13T06:03:23.476Z,102393.00
2023-05-13T06:05:51.456Z,102395.14
2023-05-13T06:08:19.277Z,102392.02
2023-05-13T06:10:47.014Z,102395.77
2023-05-13T06:13:14.766Z,102396.91
2023-05-13T06:15:42.952Z,102391.47
2023-05-13T06:18:11.203Z,102396.48
2023-05-13T06:20:39.257Z,102407.23
2023-05-13T06:23:09.151Z,102414.27
2023-05-13T06:25:37.040Z,102416.66
2023-05-13T06:28:06.264Z,102410.50
2023-05-13T06:30:34.602Z,102411.95
2023-05-13T06:33:02.875Z,102421.36
2023-05-13T06:35:31.300Z,102417.98
2023-05-13T06:37:59.113Z,102423.70
2023-05-13T06:40:27.463Z,102421.91
2023-05-13T06:42:55.289Z,102420.98
2023-05-13T06:45:26.496Z,102422.22
2023-05-13T06:47:57.876Z,102419.40
2023-05-13T06:50:26.282Z,102419.90
2023-05-13T06:52:54.007Z,102421.33
2023-05-13T06:55:23.532Z,102422.06
2023-05-13T06:57:51.686Z,102416.52
2023-05-13T07:00:19.819Z,102410.13
2023-05-13T07:02:47.746Z,102407.30
2023-05-13T07:05:15.985Z,102405.63
2023-05-13T07:07:43.735Z,102401.73
2023-05-13T07:10:12.122Z,102406.09
2023-05-13T07:12:39.940Z,102408.64
2023-05-13T07:15:08.693Z,102409.14
2023-05-13T07:17:36.719Z,102410.49
2023-05-13T07:20:05.042Z,102416.86
2023-05-13T07:22:32.804Z,102412.66
2023-05-13T07:25:00.902Z,102414.00
2023-05-13T07:27:28.889Z,102419.61
2023-05-13T07:29:56.851Z,102423.13
2023-05-13T07:32:24.659Z,102424.13
2023-05-13T07:35:49.267Z,102418.95
2023-05-13T07:38:18.207Z,102421.66
2023-05-13T07:40:46.420Z,102422.75
2023-05-13T07:43:14.506Z,102421.23
2023-05-13T07:45:42.812Z,102421.23
2023-05-13T07:48:11.201Z,102422.50
2023-05-13T07:50:39.319Z,102422.70
2023-05-13T07:53:09.538Z,102422.54
2023-05-13T07:55:37.903Z,102420.09
2023-05-13T07:58:08.720Z,102419.11
2023-05-13T08:00:36.918Z,102423.24
2023-05-13T08:03:07.601Z,102421.23
2023-05-13T08:05:35.880Z,102424.65
2023-05-13T08:08:04.640Z,102421.05
2023-05-13T08:10:34.070Z,102422.38
2023-05-13T08:13:02.342Z,102423.39
2023-05-13T08:15:30.577Z,102430.20
2023-05-13T08:17:58.352Z,102428.88
2023-05-13T08:20:30.210Z,102435.21
2023-05-13T08:22:58.522Z,102436.02
2023-05-13T08:25:26.578Z,102437.91
2023-05-13T08:27:54.541Z,102440.48
2023-05-13T08:30:22.514Z,102440.95
2023-05-13T08:32:50.442Z,102440.27
2023-05-13T08:35:18.405Z,102438.97
2023-05-13T08:37:49.011Z,102437.61
2023-05-13T08:40:17.506Z,102439.27
2023-05-13T08:42:48.018Z,102437.20
2023-05-13T08:45:18.230Z,102440.96
2023-05-13T08:47:49.554Z,102440.89
2023-05-13T08:50:19.403Z,102438.83
2023-05-13T08:52:47.445Z,102438.48
2023-05-13T08:55:15.903Z,102436.13
2023-05-13T08:57:43.804Z,102434.81
2023-05-13T09:00:12.275Z,102434.23
2023-05-13T09:02:41.249Z,102431.89
2023-05-13T09:05:09.878Z,102433.09
2023-05-13T09:07:38.859Z,102429.95
2023-05-13T09:10:07.718Z,102430.29
2023-05-13T09:12:49.457Z,102430.38
2023-05-13T09:15:17.527Z,102425.02
2023-05-13T09:17:47.520Z,102426.77
2023-05-13T09:20:16.707Z,102430.25
2023-05-13T09:22:50.142Z,102430.01
2023-05-13T09:25:18.958Z,102423.97
2023-05-13T09:27:48.592Z,102422.63
2023-05-13T09:30:17.246Z,102422.20
2023-05-13T09:32:45.293Z,102422.76
2023-05-13T09:35:18.655Z,102416.94
2023-05-13T09:37:47.451Z,102423.11
2023-05-13T09:40:17.214Z,102423.10
2023-05-13T09:42:45.773Z,102423.19
2023-05-13T09:45:15.340Z,102426.86
2023-05-13T09:47:44.145Z,102425.28
2023-05-13T09:50:12.324Z,102424.17
2023-05-13T09:52:40.197Z,102425.81
2023-05-13T09:55:11.277Z,102423.02
2023-05-13T09:57:40.862Z,102426.14
2023-05-13T10:00:17.839Z,102423.27
2023-05-13T10:02:49.727Z,102425.23
2023-05-13T10:05:21.380Z,102423.16
2023-05-13T10:07:50.057Z,102420.70
2023-05-13T10:10:37.478Z,102416.45
2023-05-13T10:13:12.684Z,102411.69
2023-05-13T10:15:46.605Z,102411.98
2023-05-13T10:18:15.276Z,102416.81
2023-05-13T10:20:44.158Z,102422.30
2023-05-13T10:23:12.098Z,102423.80
2023-05-13T10:25:40.395Z,102426.16
2023-05-13T10:28:25.146Z,102425.35
2023-05-13T10:30:53.333Z,102422.52
2023-05-13T10:33:23.652Z,102419.04
2023-05-13T10:39:56.419Z,102419.46
2023-05-13T10:42:55.442Z,102418.32
2023-05-13T10:45:26.450Z,102414.45
2023-05-13T10:48:12.551Z,102414.53
2023-05-13T10:51:01.287Z,102416.54
2023-05-13T10:53:30.622Z,102409.53
2023-05-13T10:55:59.499Z,102409.63
2023-05-13T10:58:31.488Z,102407.30
2023-05-13T11:01:16.217Z,102406.40
2023-05-13T11:03:53.157Z,102401.47
2023-05-13T11:10:48.497Z,102394.92
2023-05-13T11:13:16.341Z,102395.02
2023-05-13T11:15:51.923Z,102397.38
2023-05-13T11:18:29.388Z,102398.79
2023-05-13T11:21:50.299Z,102396.19
2023-05-13T11:28:03.817Z,102397.16
2023-05-13T11:30:31.729Z,102397.27
2023-05-13T11:33:02.280Z,102399.88
2023-05-13T11:35:36.167Z,102397.56
2023-05-13T11:38:04.205Z,102398.73
2023-05-13T11:40:33.244Z,102394.40
2023-05-13T11:43:01.822Z,102394.36
2023-05-13T11:45:32.135Z,102394.16
2023-05-13T11:48:19.542Z,102394.48
2023-05-13T11:50:47.361Z,102396.41
2023-05-13T11:53:19.943Z,102398.71
2023-05-13T11:55:48.371Z,102394.77
2023-05-13T11:58:16.556Z,102399.77
2023-05-13T12:00:46.499Z,102397.25
2023-05-13T12:03:16.410Z,102399.40
2023-05-13T12:05:48.672Z,102396.18
2023-05-13T12:08:17.308Z,102396.25
2023-05-13T12:10:45.564Z,102390.52
2023-05-13T12:13:13.561Z,102389.27
2023-05-13T12:15:42.212Z,102385.20
2023-05-13T12:18:10.125Z,102383.41
2023-05-13T12:20:38.344Z,102383.30
2023-05-13T12:23:12.059Z,102378.83
2023-05-13T12:25:47.050Z,102380.88
2023-05-13T12:28:22.609Z,102383.78
2023-05-13T12:30:53.736Z,102383.44
2023-05-13T12:33:26.236Z,102380.71
2023-05-13T12:35:55.271Z,102379.16
2023-05-13T12:38:24.736Z,102376.03
2023-05-13T12:40:55.095Z,102377.19
2023-05-13T12:43:23.244Z,102378.05
2023-05-13T12:45:54.029Z,102376.38
2023-05-13T12:48:26.100Z,102372.52
2023-05-13T12:50:54.143Z,102371.27
2023-05-13T12:53:22.183Z,102368.94
2023-05-13T12:55:50.113Z,102368.16
2023-05-13T12:58:18.185Z,102370.04
2023-05-13T13:00:46.570Z,102369.90
2023-05-13T13:03:17.265Z,102368.41
2023-05-13T13:05:45.140Z,102367.67
2023-05-13T13:08:13.174Z,102364.20
2023-05-13T13:10:40.951Z,102360.78
2023-05-13T13:13:09.843Z,102359.05
2023-05-13T13:15:37.922Z,102353.37
2023-05-13T13:18:05.820Z,102357.41
2023-05-13T13:21:01.581Z,102355.05
2023-05-13T13:30:47.139Z,102338.09
2023-05-13T13:33:45.754Z,102337.41
2023-05-13T13:36:46.654Z,102337.71
2023-05-13T13:39:32.124Z,102334.97
2023-05-13T13:42:01.220Z,102330.45
2023-05-13T13:44:29.246Z,102334.43
2023-05-13T13:46:57.110Z,102334.38
2023-05-13T13:49:25.219Z,102334.65
2023-05-13T13:51:53.321Z,102323.64
2023-05-13T13:54:21.437Z,102320.83
2023-05-13T14:00:23.674Z,102316.02
2023-05-13T14:03:35.409Z,102314.80
2023-05-13T14:09:12.321Z,102315.27
2023-05-13T14:11:40.226Z,102316.95
2023-05-13T14:14:08.649Z,102311.95
2023-05-13T14:16:36.810Z,102307.48
2023-05-13T14:19:04.933Z,102305.80
2023-05-13T14:21:38.192Z,102303.23
2023-05-13T14:24:08.406Z,102305.00
2023-05-13T14:26:41.625Z,102305.68
2023-05-13T14:29:10.919Z,102301.85
2023-05-13T14:31:43.646Z,102303.27
2023-05-13T14:34:37.326Z,102303.21
2023-05-13T14:37:05.831Z,102303.65
2023-05-13T14:39:40.237Z,102296.64
2023-05-13T14:42:08.373Z,102295.44
2023-05-13T14:45:04.499Z,102294.09
2023-05-13T14:47:54.184Z,102294.89
2023-05-13T14:50:22.664Z,102291.52
2023-05-13T14:52:51.317Z,102292.91
2023-05-13T14:55:19.110Z,102293.68
2023-05-13T14:57:47.040Z,102294.35
2023-05-13T15:00:15.257Z,102292.59
2023-05-13T15:02:43.321Z,102295.73
2023-05-13T15:05:20.671Z,102292.65
2023-05-13T15:07:50.049Z,102291.45
2023-05-13T15:10:19.510Z,102288.55
2023-05-13T15:13:08.174Z,102282.89
2023-05-13T15:15:36.691Z,102280.15
2023-05-13T15:18:07.485Z,102274.13
2023-05-13T15:20:35.379Z,102272.19
2023-05-13T15:26:07.338Z,102263.54
2023-05-13T15:28:35.277Z,102260.36
2023-05-13T15:31:03.377Z,102259.19
2023-05-13T15:33:35.846Z,102252.36
2023-05-13T15:39:17.310Z,102248.02
2023-05-13T15:41:46.502Z,102246.48
2023-05-13T15:44:17.838Z,102244.19
2023-05-13T15:47:16.934Z,102240.89
2023-05-13T15:49:55.347Z,102236.50
2023-05-13T15:52:23.386Z,102240.20
2023-05-13T15:54:54.391Z,102242.91
2023-05-13T15:57:22.364Z,102241.56
2023-05-13T15:59:50.019Z,102236.95
2023-05-13T16:02:18.698Z,102238.73
2023-05-13T16:04:46.905Z,102235.62
2023-05-13T16:07:16.808Z,102233.30
2023-05-13T16:09:44.540Z,102231.48
2023-05-13T16:12:12.586Z,102232.75
2023-05-13T16:14:40.543Z,102231.09
2023-05-13T16:17:09.478Z,102232.77
2023-05-13T16:19:37.304Z,102230.52
2023-05-13T16:22:24.716Z,102229.73
2023-05-13T16:24:52.794Z,102230.77
2023-05-13T16:27:21.000Z,102227.33
2023-05-13T16:29:49.617Z,102227.85
2023-05-13T16:32:17.767Z,102227.39
2023-05-13T16:34:45.673Z,102225.48
2023-05-13T16:37:13.679Z,102229.19
2023-05-13T16:39:45.869Z,102226.20
2023-05-13T16:42:13.856Z,102223.49
2023-05-13T16:44:41.785Z,102217.52
2023-05-13T16:47:30.133Z,102214.24
2023-05-13T16:49:57.961Z,102215.07
2023-05-13T16:52:26.161Z,102210.73
2023-05-13T16:54:56.576Z,102210.88
2023-05-13T16:58:03.164Z,102212.11
2023-05-13T17:01:06.091Z,102210.30
2023-05-13T17:03:38.089Z,102206.18
2023-05-13T17:06:07.694Z,102203.17
2023-05-13T17:08:39.905Z,102198.42
2023-05-13T17:11:16.952Z,102200.39
2023-05-13T17:13:44.912Z,102197.23
2023-05-13T17:16:12.629Z,102195.56
2023-05-13T17:18:40.496Z,102191.61
2023-05-13T17:21:08.372Z,102190.27
2023-05-13T17:23:36.274Z,102187.59
2023-05-13T17:26:05.478Z,102184.70
2023-05-13T17:28:34.128Z,102183.39
2023-05-13T17:31:02.032Z,102179.48
2023-05-13T17:33:29.911Z,102184.02
2023-05-13T17:35:57.829Z,102179.21
2023-05-13T17:38:25.850Z,102181.69
2023-05-13T17:40:56.646Z,102186.48
2023-05-13T17:43:24.418Z,102186.22
2023-05-13T17:45:52.481Z,102182.84
2023-05-13T17:48:20.411Z,102180.17
2023-05-13T17:50:48.874Z,102178.90
2023-05-13T17:53:16.816Z,102177.30
2023-05-13T17:55:48.698Z,102178.12
2023-05-13T17:58:19.756Z,102175.95
2023-05-13T18:04:16.820Z,102179.73
2023-05-13T18:06:44.752Z,102183.98
2023-05-13T18:09:12.500Z,102180.23
2023-05-13T18:11:40.584Z,102174.89
2023-05-13T18:14:08.297Z,102171.85
2023-05-13T18:16:36.245Z,102172.12
2023-05-13T18:19:04.256Z,102171.98
2023-05-13T18:21:32.316Z,102175.83
2023-05-13T18:24:00.234Z,102168.91
2023-05-13T18:26:28.186Z,102168.89
2023-05-13T18:28:56.121Z,102165.86
2023-05-13T18:31:24.044Z,102167.35
2023-05-13T18:33:51.910Z,102171.08
2023-05-13T18:36:19.606Z,102175.70
2023-05-13T18:38:48.108Z,102173.39
2023-05-13T18:41:16.103Z,102178.04
2023-05-13T18:43:43.897Z,102178.88
2023-05-13T18:46:11.866Z,102183.69
2023-05-13T18:48:39.765Z,102181.13
2023-05-13T18:51:07.534Z,102180.73
2023-05-13T18:53:35.649Z,102179.34
2023-05-13T18:56:03.712Z,102179.67
2023-05-13T18:58:31.569Z,102180.44
2023-05-13T19:00:59.531Z,102177.07
2023-05-13T19:03:27.660Z,102180.22
2023-05-13T19:05:55.957Z,102180.99
2023-05-13T19:08:23.786Z,102180.42
2023-05-13T19:10:51.542Z,102183.05
2023-05-13T19:13:22.440Z,102184.05
2023-05-13T19:15:50.242Z,102188.20
2023-05-13T19:18:18.207Z,102193.81
2023-05-13T19:20:48.836Z,102193.33
2023-05-13T19:23:16.740Z,102195.63
2023-05-13T19:25:44.549Z,102196.48
2023-05-13T19:28:13.110Z,102195.17
2023-05-13T19:30:41.445Z,102193.13
2023-05-13T19:33:09.489Z,102192.91
2023-05-13T19:35:37.672Z,102193.40
2023-05-13T19:38:05.778Z,102191.98
2023-05-13T19:40:33.658Z,102187.90
2023-05-13T19:43:01.689Z,102188.00
2023-05-13T19:45:29.654Z,102190.58
2023-05-13T19:47:59.044Z,102188.34
2023-05-13T19:50:28.584Z,102191.35
2023-05-13T19:52:56.560Z,102193.06
2023-05-13T19:55:24.397Z,102192.75
2023-05-13T19:57:54.252Z,102191.27
2023-05-13T20:00:24.266Z,102191.41
2023-05-13T20:05:14.618Z,102196.60
2023-05-13T20:06:18.221Z,102194.67
2023-05-13T20:09:12.074Z,102195.83
2023-05-13T20:11:40.316Z,102196.55
2023-05-13T20:14:08.074Z,102200.09
2023-05-13T20:16:39.044Z,102198.14
2023-05-13T20:19:09.907Z,102197.28
2023-05-13T20:21:38.084Z,102200.55
2023-05-13T20:24:05.929Z,102202.58
2023-05-13T20:26:34.890Z,102202.13
2023-05-13T20:29:03.354Z,102202.33
2023-05-13T20:31:31.337Z,102199.73
2023-05-13T20:33:59.151Z,102199.92
2023-05-13T20:36:28.251Z,102201.20
2023-05-13T20:38:56.385Z,102198.61
2023-05-13T20:41:24.485Z,102195.71
2023-05-13T20:43:52.379Z,102193.58
2023-05-13T20:46:20.323Z,102191.33
2023-05-13T20:48:48.370Z,102192.92
2023-05-13T20:51:17.167Z,102189.09
2023-05-13T20:53:49.396Z,102194.04
2023-05-13T20:56:17.611Z,102188.84
2023-05-13T20:58:45.394Z,102189.09
2023-05-13T21:01:13.326Z,102188.13
2023-05-13T21:03:41.196Z,102188.66
2023-05-13T21:06:12.492Z,102186.17
2023-05-13T21:08:40.418Z,102184.98
2023-05-13T21:11:13.023Z,102186.00
2023-05-13T21:13:50.122Z,102185.52
2023-05-13T21:16:17.971Z,102187.85
2023-05-13T21:18:45.938Z,102193.50
2023-05-13T21:21:13.788Z,102191.05
2023-05-13T21:23:43.524Z,102187.14
2023-05-13T21:26:11.644Z,102188.40
2023-05-13T21:28:39.531Z,102189.41
2023-05-13T21:31:07.498Z,102192.64
2023-05-13T21:33:38.250Z,102194.48
2023-05-13T21:36:07.953Z,102195.58
2023-05-13T21:38:35.703Z,102192.84
2023-05-13T21:41:03.733Z,102189.30
2023-05-13T21:43:31.399Z,102186.73
2023-05-13T21:45:59.289Z,102179.45
2023-05-13T21:48:27.053Z,102174.13
2023-05-13T21:50:54.973Z,102174.58
2023-05-13T21:53:22.952Z,102166.52
2023-05-13T21:55:51.395Z,102159.86
2023-05-13T21:58:20.596Z,102155.79
2023-05-13T22:00:50.353Z,102158.40
2023-05-13T22:03:18.124Z,102157.52
2023-05-13T22:05:46.146Z,102155.89
2023-05-13T22:08:13.850Z,102159.55
2023-05-13T22:10:41.751Z,102164.33
2023-05-13T22:13:09.434Z,102161.25
2023-05-13T22:15:37.297Z,102157.02
2023-05-13T22:18:05.143Z,102150.25
2023-05-13T22:20:33.192Z,102150.65
2023-05-13T22:23:01.040Z,102149.16
2023-05-13T22:25:28.964Z,102148.36
2023-05-13T22:27:56.675Z,102145.36
2023-05-13T22:30:24.698Z,102143.77
2023-05-13T22:32:52.748Z,102142.73
2023-05-13T22:35:20.586Z,102145.98
2023-05-13T22:37:50.287Z,102141.40
2023-05-13T22:40:18.310Z,102145.65
2023-05-13T22:42:46.333Z,102148.88
2023-05-13T22:45:14.493Z,102147.17
2023-05-13T22:47:42.443Z,102143.98
2023-05-13T22:50:12.561Z,102146.05
2023-05-13T22:55:33.255Z,102142.64
2023-05-13T22:58:00.996Z,102148.17
2023-05-13T23:00:29.042Z,102146.98
2023-05-13T23:02:57.601Z,102145.38
2023-05-13T23:05:25.518Z,102135.79
2023-05-13T23:07:53.543Z,102136.13
2023-05-13T23:10:21.687Z,102135.95
2023-05-13T23:12:49.805Z,102132.21
2023-05-13T23:15:17.645Z,102125.05
2023-05-13T23:17:45.579Z,102120.66
2023-05-13T23:20:13.464Z,102116.77
2023-05-13T23:22:41.514Z,102119.02
2023-05-13T23:25:09.506Z,102116.41
2023-05-13T23:27:38.460Z,102118.45
2023-05-13T23:30:06.988Z,102118.67
2023-05-13T23:32:35.181Z,102116.48
2023-05-13T23:35:03.106Z,102113.23
2023-05-13T23:37:31.581Z,102113.45
2023-05-13T23:40:01.276Z,102113.89
2023-05-13T23:42:29.452Z,102112.33
2023-05-13T23:48:39.234Z,102112.28
2023-05-13T23:51:07.447Z,102108.88
